sensor_id;sensor_type;location;lat;lon;timestamp;P1;durP1;ratioP1;P2;durP2;ratioP2
58015;SDS011;43809;52.110;20.964;2023-12-20T00:00:27;18.35;;;10.85;;
58015;SDS011;43809;52.110;20.964;2023-12-20T00:02:28;16.92;;;9.90;;
58015;SDS011;43809;52.110;20.964;2023-12-20T00:06:58;21.20;;;11.68;;
58015;SDS011;43809;52.110;20.964;2023-12-20T00:08:59;18.13;;;11.05;;
58015;SDS011;43809;52.110;20.964;2023-12-20T00:10:59;16.85;;;10.63;;
58015;SDS011;43809;52.110;20.964;2023-12-20T00:13:00;17.23;;;8.95;;
58015;SDS011;43809;52.110;20.964;2023-12-20T00:15:01;18.98;;;10.50;;
58015;SDS011;43809;52.110;20.964;2023-12-20T00:19:22;14.55;;;9.20;;
58015;SDS011;43809;52.110;20.964;2023-12-20T00:21:23;12.73;;;8.57;;
58015;SDS011;43809;52.110;20.964;2023-12-20T00:23:24;15.02;;;9.38;;
58015;SDS011;43809;52.110;20.964;2023-12-20T00:25:25;12.43;;;8.45;;
58015;SDS011;43809;52.110;20.964;2023-12-20T00:49:08;14.70;;;9.40;;
58015;SDS011;43809;52.110;20.964;2023-12-20T00:51:08;14.00;;;8.50;;
58015;SDS011;43809;52.110;20.964;2023-12-20T00:53:09;17.10;;;9.77;;
58015;SDS011;43809;52.110;20.964;2023-12-20T00:55:10;13.15;;;8.68;;
58015;SDS011;43809;52.110;20.964;2023-12-20T00:57:11;11.38;;;7.90;;
58015;SDS011;43809;52.110;20.964;2023-12-20T00:59:11;12.27;;;7.93;;
58015;SDS011;43809;52.110;20.964;2023-12-20T01:01:12;12.38;;;6.90;;
58015;SDS011;43809;52.110;20.964;2023-12-20T01:03:13;13.23;;;7.60;;
58015;SDS011;43809;52.110;20.964;2023-12-20T01:05:15;14.10;;;7.67;;
58015;SDS011;43809;52.110;20.964;2023-12-20T01:07:15;12.77;;;7.47;;
58015;SDS011;43809;52.110;20.964;2023-12-20T01:09:16;12.45;;;7.90;;
58015;SDS011;43809;52.110;20.964;2023-12-20T01:11:17;13.70;;;8.48;;
58015;SDS011;43809;52.110;20.964;2023-12-20T01:16:28;14.82;;;7.55;;
58015;SDS011;43809;52.110;20.964;2023-12-20T01:18:29;11.68;;;7.72;;
58015;SDS011;43809;52.110;20.964;2023-12-20T01:20:30;14.45;;;8.20;;
58015;SDS011;43809;52.110;20.964;2023-12-20T01:22:31;12.90;;;8.18;;
58015;SDS011;43809;52.110;20.964;2023-12-20T01:26:51;12.82;;;7.78;;
58015;SDS011;43809;52.110;20.964;2023-12-20T01:28:52;13.80;;;8.25;;
58015;SDS011;43809;52.110;20.964;2023-12-20T01:30:53;11.65;;;7.43;;
58015;SDS011;43809;52.110;20.964;2023-12-20T01:32:53;17.23;;;9.63;;
58015;SDS011;43809;52.110;20.964;2023-12-20T01:34:54;12.73;;;7.82;;
58015;SDS011;43809;52.110;20.964;2023-12-20T01:36:55;13.07;;;7.80;;
58015;SDS011;43809;52.110;20.964;2023-12-20T01:38:56;14.48;;;8.50;;
58015;SDS011;43809;52.110;20.964;2023-12-20T01:40:56;16.00;;;8.82;;
58015;SDS011;43809;52.110;20.964;2023-12-20T01:43:18;14.07;;;8.48;;
58015;SDS011;43809;52.110;20.964;2023-12-20T01:47:48;12.63;;;7.45;;
58015;SDS011;43809;52.110;20.964;2023-12-20T01:49:49;12.57;;;8.25;;
58015;SDS011;43809;52.110;20.964;2023-12-20T01:51:50;11.13;;;6.70;;
58015;SDS011;43809;52.110;20.964;2023-12-20T01:53:50;12.38;;;7.78;;
58015;SDS011;43809;52.110;20.964;2023-12-20T01:55:52;12.75;;;7.78;;
58015;SDS011;43809;52.110;20.964;2023-12-20T01:57:55;12.88;;;8.07;;
58015;SDS011;43809;52.110;20.964;2023-12-20T02:00:07;13.45;;;7.97;;
58015;SDS011;43809;52.110;20.964;2023-12-20T02:02:09;12.52;;;7.80;;
58015;SDS011;43809;52.110;20.964;2023-12-20T02:04:13;8.57;;;6.25;;
58015;SDS011;43809;52.110;20.964;2023-12-20T02:06:14;12.27;;;7.65;;
58015;SDS011;43809;52.110;20.964;2023-12-20T02:08:15;11.65;;;7.25;;
58015;SDS011;43809;52.110;20.964;2023-12-20T02:10:16;10.20;;;6.47;;
58015;SDS011;43809;52.110;20.964;2023-12-20T02:12:16;11.18;;;6.38;;
58015;SDS011;43809;52.110;20.964;2023-12-20T02:14:17;11.52;;;6.90;;
58015;SDS011;43809;52.110;20.964;2023-12-20T02:16:18;9.25;;;6.15;;
58015;SDS011;43809;52.110;20.964;2023-12-20T02:18:19;9.30;;;6.28;;
58015;SDS011;43809;52.110;20.964;2023-12-20T02:20:19;9.57;;;6.30;;
58015;SDS011;43809;52.110;20.964;2023-12-20T02:22:20;13.20;;;6.78;;
58015;SDS011;43809;52.110;20.964;2023-12-20T02:24:21;9.77;;;5.85;;
58015;SDS011;43809;52.110;20.964;2023-12-20T02:26:21;10.82;;;5.72;;
58015;SDS011;43809;52.110;20.964;2023-12-20T02:28:22;9.38;;;5.70;;
58015;SDS011;43809;52.110;20.964;2023-12-20T02:30:23;9.43;;;5.80;;
58015;SDS011;43809;52.110;20.964;2023-12-20T02:32:24;9.68;;;5.57;;
58015;SDS011;43809;52.110;20.964;2023-12-20T02:37:48;7.75;;;5.03;;
58015;SDS011;43809;52.110;20.964;2023-12-20T02:39:48;9.68;;;5.78;;
58015;SDS011;43809;52.110;20.964;2023-12-20T02:41:49;7.68;;;5.32;;
58015;SDS011;43809;52.110;20.964;2023-12-20T02:43:50;9.15;;;5.55;;
58015;SDS011;43809;52.110;20.964;2023-12-20T02:45:50;8.00;;;5.65;;
58015;SDS011;43809;52.110;20.964;2023-12-20T02:47:51;7.55;;;5.10;;
58015;SDS011;43809;52.110;20.964;2023-12-20T02:49:52;7.70;;;5.28;;
58015;SDS011;43809;52.110;20.964;2023-12-20T02:51:53;7.43;;;4.65;;
58015;SDS011;43809;52.110;20.964;2023-12-20T02:53:54;8.57;;;5.03;;
58015;SDS011;43809;52.110;20.964;2023-12-20T02:55:54;7.50;;;4.72;;
58015;SDS011;43809;52.110;20.964;2023-12-20T02:57:55;8.32;;;4.63;;
58015;SDS011;43809;52.110;20.964;2023-12-20T02:59:56;7.50;;;5.03;;
58015;SDS011;43809;52.110;20.964;2023-12-20T03:01:56;9.07;;;5.32;;
58015;SDS011;43809;52.110;20.964;2023-12-20T03:03:57;8.55;;;5.22;;
58015;SDS011;43809;52.110;20.964;2023-12-20T03:05:58;9.65;;;5.07;;
58015;SDS011;43809;52.110;20.964;2023-12-20T03:11:09;8.48;;;4.47;;
58015;SDS011;43809;52.110;20.964;2023-12-20T03:13:09;11.48;;;6.60;;
58015;SDS011;43809;52.110;20.964;2023-12-20T03:17:30;7.68;;;4.90;;
58015;SDS011;43809;52.110;20.964;2023-12-20T03:19:30;9.00;;;5.82;;
58015;SDS011;43809;52.110;20.964;2023-12-20T03:21:31;10.70;;;5.88;;
58015;SDS011;43809;52.110;20.964;2023-12-20T03:23:32;8.48;;;5.80;;
58015;SDS011;43809;52.110;20.964;2023-12-20T03:25:33;8.93;;;5.75;;
58015;SDS011;43809;52.110;20.964;2023-12-20T03:27:36;8.30;;;5.50;;
58015;SDS011;43809;52.110;20.964;2023-12-20T03:29:37;10.23;;;6.25;;
58015;SDS011;43809;52.110;20.964;2023-12-20T03:31:37;7.15;;;5.13;;
58015;SDS011;43809;52.110;20.964;2023-12-20T03:33:38;8.13;;;5.10;;
58015;SDS011;43809;52.110;20.964;2023-12-20T03:35:39;7.10;;;4.93;;
58015;SDS011;43809;52.110;20.964;2023-12-20T03:37:47;7.82;;;5.15;;
58015;SDS011;43809;52.110;20.964;2023-12-20T03:39:47;8.10;;;4.85;;
58015;SDS011;43809;52.110;20.964;2023-12-20T03:41:48;7.90;;;4.88;;
58015;SDS011;43809;52.110;20.964;2023-12-20T03:43:49;7.38;;;4.22;;
58015;SDS011;43809;52.110;20.964;2023-12-20T03:45:49;5.57;;;3.78;;
58015;SDS011;43809;52.110;20.964;2023-12-20T03:47:50;7.15;;;4.60;;
58015;SDS011;43809;52.110;20.964;2023-12-20T03:49:56;7.63;;;4.40;;
58015;SDS011;43809;52.110;20.964;2023-12-20T03:51:57;6.80;;;4.07;;
58015;SDS011;43809;52.110;20.964;2023-12-20T03:53:57;5.53;;;3.90;;
58015;SDS011;43809;52.110;20.964;2023-12-20T03:55:58;5.60;;;3.88;;
58015;SDS011;43809;52.110;20.964;2023-12-20T03:57:59;5.80;;;4.00;;
58015;SDS011;43809;52.110;20.964;2023-12-20T04:00:00;4.95;;;3.67;;
58015;SDS011;43809;52.110;20.964;2023-12-20T04:05:11;8.40;;;4.70;;
58015;SDS011;43809;52.110;20.964;2023-12-20T04:07:11;5.18;;;3.33;;
58015;SDS011;43809;52.110;20.964;2023-12-20T04:09:12;5.82;;;4.40;;
58015;SDS011;43809;52.110;20.964;2023-12-20T04:11:13;9.38;;;5.57;;
58015;SDS011;43809;52.110;20.964;2023-12-20T04:13:13;6.60;;;4.75;;
58015;SDS011;43809;52.110;20.964;2023-12-20T04:15:14;8.20;;;4.55;;
58015;SDS011;43809;52.110;20.964;2023-12-20T04:17:15;9.05;;;4.50;;
58015;SDS011;43809;52.110;20.964;2023-12-20T04:19:16;8.30;;;4.75;;
58015;SDS011;43809;52.110;20.964;2023-12-20T04:21:17;7.60;;;4.82;;
58015;SDS011;43809;52.110;20.964;2023-12-20T04:23:18;7.72;;;4.80;;
58015;SDS011;43809;52.110;20.964;2023-12-20T04:25:19;7.97;;;4.78;;
58015;SDS011;43809;52.110;20.964;2023-12-20T04:27:20;6.47;;;4.25;;
58015;SDS011;43809;52.110;20.964;2023-12-20T04:29:21;8.23;;;4.35;;
58015;SDS011;43809;52.110;20.964;2023-12-20T04:31:21;7.13;;;4.40;;
58015;SDS011;43809;52.110;20.964;2023-12-20T04:33:22;5.90;;;3.85;;
58015;SDS011;43809;52.110;20.964;2023-12-20T04:35:23;6.78;;;4.63;;
58015;SDS011;43809;52.110;20.964;2023-12-20T04:37:24;9.82;;;5.40;;
58015;SDS011;43809;52.110;20.964;2023-12-20T04:39:24;7.78;;;4.80;;
58015;SDS011;43809;52.110;20.964;2023-12-20T04:41:25;6.43;;;4.20;;
58015;SDS011;43809;52.110;20.964;2023-12-20T04:43:27;7.43;;;4.60;;
58015;SDS011;43809;52.110;20.964;2023-12-20T04:45:28;6.35;;;3.97;;
58015;SDS011;43809;52.110;20.964;2023-12-20T04:50:14;7.60;;;4.53;;
58015;SDS011;43809;52.110;20.964;2023-12-20T04:52:15;7.95;;;4.05;;
58015;SDS011;43809;52.110;20.964;2023-12-20T04:54:15;6.97;;;4.32;;
58015;SDS011;43809;52.110;20.964;2023-12-20T04:56:16;6.07;;;4.32;;
58015;SDS011;43809;52.110;20.964;2023-12-20T04:58:17;7.43;;;4.18;;
58015;SDS011;43809;52.110;20.964;2023-12-20T05:00:17;5.78;;;3.90;;
58015;SDS011;43809;52.110;20.964;2023-12-20T05:02:34;5.95;;;3.63;;
58015;SDS011;43809;52.110;20.964;2023-12-20T05:04:35;4.88;;;3.63;;
58015;SDS011;43809;52.110;20.964;2023-12-20T05:06:36;5.90;;;3.78;;
58015;SDS011;43809;52.110;20.964;2023-12-20T05:08:36;7.03;;;4.75;;
58015;SDS011;43809;52.110;20.964;2023-12-20T05:10:37;5.78;;;3.88;;
58015;SDS011;43809;52.110;20.964;2023-12-20T05:12:38;8.18;;;5.28;;
58015;SDS011;43809;52.110;20.964;2023-12-20T05:14:49;7.57;;;4.80;;
58015;SDS011;43809;52.110;20.964;2023-12-20T05:16:49;7.43;;;4.72;;
58015;SDS011;43809;52.110;20.964;2023-12-20T05:18:50;7.10;;;4.30;;
58015;SDS011;43809;52.110;20.964;2023-12-20T05:20:52;6.25;;;4.22;;
58015;SDS011;43809;52.110;20.964;2023-12-20T05:22:53;5.40;;;4.25;;
58015;SDS011;43809;52.110;20.964;2023-12-20T05:25:01;6.30;;;4.25;;
58015;SDS011;43809;52.110;20.964;2023-12-20T05:27:02;6.70;;;4.47;;
58015;SDS011;43809;52.110;20.964;2023-12-20T05:29:02;7.90;;;5.30;;
58015;SDS011;43809;52.110;20.964;2023-12-20T05:31:03;6.32;;;4.47;;
58015;SDS011;43809;52.110;20.964;2023-12-20T05:33:04;10.05;;;5.88;;
58015;SDS011;43809;52.110;20.964;2023-12-20T05:35:04;6.53;;;4.32;;
58015;SDS011;43809;52.110;20.964;2023-12-20T05:42:54;6.95;;;4.80;;
58015;SDS011;43809;52.110;20.964;2023-12-20T05:47:26;6.03;;;4.40;;
58015;SDS011;43809;52.110;20.964;2023-12-20T05:49:27;6.50;;;4.88;;
58015;SDS011;43809;52.110;20.964;2023-12-20T05:51:27;7.38;;;4.60;;
58015;SDS011;43809;52.110;20.964;2023-12-20T05:53:28;8.63;;;5.22;;
58015;SDS011;43809;52.110;20.964;2023-12-20T05:55:29;7.20;;;4.80;;
58015;SDS011;43809;52.110;20.964;2023-12-20T05:57:29;6.72;;;4.90;;
58015;SDS011;43809;52.110;20.964;2023-12-20T05:59:30;9.60;;;5.70;;
58015;SDS011;43809;52.110;20.964;2023-12-20T06:01:31;7.35;;;5.00;;
58015;SDS011;43809;52.110;20.964;2023-12-20T06:03:41;11.60;;;6.15;;
58015;SDS011;43809;52.110;20.964;2023-12-20T06:05:41;7.75;;;5.18;;
58015;SDS011;43809;52.110;20.964;2023-12-20T06:14:12;8.15;;;5.40;;
58015;SDS011;43809;52.110;20.964;2023-12-20T06:16:13;7.85;;;5.47;;
58015;SDS011;43809;52.110;20.964;2023-12-20T06:18:14;8.80;;;5.22;;
58015;SDS011;43809;52.110;20.964;2023-12-20T06:20:15;7.68;;;4.97;;
58015;SDS011;43809;52.110;20.964;2023-12-20T06:24:40;6.85;;;4.75;;
58015;SDS011;43809;52.110;20.964;2023-12-20T06:26:40;9.15;;;5.97;;
58015;SDS011;43809;52.110;20.964;2023-12-20T06:28:41;8.15;;;4.80;;
58015;SDS011;43809;52.110;20.964;2023-12-20T06:30:42;8.35;;;4.70;;
58015;SDS011;43809;52.110;20.964;2023-12-20T06:32:42;8.20;;;5.65;;
58015;SDS011;43809;52.110;20.964;2023-12-20T06:34:43;7.43;;;5.03;;
58015;SDS011;43809;52.110;20.964;2023-12-20T06:36:44;11.00;;;5.82;;
58015;SDS011;43809;52.110;20.964;2023-12-20T06:38:44;9.18;;;5.32;;
58015;SDS011;43809;52.110;20.964;2023-12-20T06:40:45;7.50;;;5.20;;
58015;SDS011;43809;52.110;20.964;2023-12-20T06:42:48;9.18;;;5.20;;
58015;SDS011;43809;52.110;20.964;2023-12-20T06:47:59;10.10;;;5.78;;
58015;SDS011;43809;52.110;20.964;2023-12-20T06:50:00;7.88;;;5.65;;
58015;SDS011;43809;52.110;20.964;2023-12-20T06:52:01;7.18;;;5.07;;
58015;SDS011;43809;52.110;20.964;2023-12-20T06:54:02;7.80;;;5.22;;
58015;SDS011;43809;52.110;20.964;2023-12-20T06:56:03;9.45;;;5.90;;
58015;SDS011;43809;52.110;20.964;2023-12-20T06:58:04;8.55;;;5.68;;
58015;SDS011;43809;52.110;20.964;2023-12-20T07:00:04;10.43;;;6.10;;
58015;SDS011;43809;52.110;20.964;2023-12-20T07:02:06;9.93;;;6.68;;
58015;SDS011;43809;52.110;20.964;2023-12-20T07:04:06;8.55;;;5.38;;
58015;SDS011;43809;52.110;20.964;2023-12-20T07:06:07;8.50;;;5.18;;
58015;SDS011;43809;52.110;20.964;2023-12-20T07:08:08;10.05;;;5.65;;
58015;SDS011;43809;52.110;20.964;2023-12-20T07:10:09;14.35;;;7.07;;
58015;SDS011;43809;52.110;20.964;2023-12-20T07:12:09;9.40;;;5.68;;
58015;SDS011;43809;52.110;20.964;2023-12-20T07:14:10;8.70;;;6.03;;
58015;SDS011;43809;52.110;20.964;2023-12-20T07:16:11;9.35;;;6.05;;
58015;SDS011;43809;52.110;20.964;2023-12-20T07:18:11;12.95;;;6.93;;
58015;SDS011;43809;52.110;20.964;2023-12-20T07:20:12;10.98;;;6.00;;
58015;SDS011;43809;52.110;20.964;2023-12-20T07:24:46;7.40;;;5.50;;
58015;SDS011;43809;52.110;20.964;2023-12-20T07:26:48;11.07;;;6.38;;
58015;SDS011;43809;52.110;20.964;2023-12-20T07:28:49;8.35;;;5.22;;
58015;SDS011;43809;52.110;20.964;2023-12-20T07:32:58;8.60;;;5.63;;
58015;SDS011;43809;52.110;20.964;2023-12-20T07:43:44;8.93;;;5.85;;
58015;SDS011;43809;52.110;20.964;2023-12-20T07:45:45;10.13;;;5.72;;
58015;SDS011;43809;52.110;20.964;2023-12-20T07:48:04;7.85;;;5.00;;
58015;SDS011;43809;52.110;20.964;2023-12-20T07:50:05;7.85;;;5.00;;
58015;SDS011;43809;52.110;20.964;2023-12-20T07:52:06;8.95;;;5.45;;
58015;SDS011;43809;52.110;20.964;2023-12-20T07:54:07;8.60;;;5.35;;
58015;SDS011;43809;52.110;20.964;2023-12-20T07:56:18;5.75;;;4.80;;
58015;SDS011;43809;52.110;20.964;2023-12-20T07:58:19;9.25;;;5.70;;
58015;SDS011;43809;52.110;20.964;2023-12-20T08:00:20;8.95;;;5.47;;
58015;SDS011;43809;52.110;20.964;2023-12-20T08:02:20;10.57;;;6.07;;
58015;SDS011;43809;52.110;20.964;2023-12-20T08:04:21;9.27;;;5.63;;
58015;SDS011;43809;52.110;20.964;2023-12-20T08:06:22;7.72;;;5.32;;
58015;SDS011;43809;52.110;20.964;2023-12-20T08:08:22;6.20;;;4.55;;
58015;SDS011;43809;52.110;20.964;2023-12-20T08:10:23;7.10;;;4.43;;
58015;SDS011;43809;52.110;20.964;2023-12-20T08:12:24;7.03;;;4.47;;
58015;SDS011;43809;52.110;20.964;2023-12-20T08:17:45;9.68;;;5.85;;
58015;SDS011;43809;52.110;20.964;2023-12-20T08:19:45;7.95;;;4.95;;
58015;SDS011;43809;52.110;20.964;2023-12-20T08:21:46;11.52;;;6.55;;
58015;SDS011;43809;52.110;20.964;2023-12-20T08:23:47;8.73;;;5.63;;
58015;SDS011;43809;52.110;20.964;2023-12-20T08:25:48;6.97;;;4.47;;
58015;SDS011;43809;52.110;20.964;2023-12-20T08:27:49;7.13;;;4.93;;
58015;SDS011;43809;52.110;20.964;2023-12-20T08:29:50;9.40;;;5.70;;
58015;SDS011;43809;52.110;20.964;2023-12-20T08:31:57;12.70;;;6.15;;
58015;SDS011;43809;52.110;20.964;2023-12-20T08:33:57;9.57;;;5.97;;
58015;SDS011;43809;52.110;20.964;2023-12-20T08:35:58;8.63;;;5.45;;
58015;SDS011;43809;52.110;20.964;2023-12-20T08:37:59;8.70;;;6.20;;
58015;SDS011;43809;52.110;20.964;2023-12-20T08:39:59;7.88;;;5.20;;
58015;SDS011;43809;52.110;20.964;2023-12-20T08:47:25;9.43;;;6.25;;
58015;SDS011;43809;52.110;20.964;2023-12-20T08:49:25;12.23;;;6.80;;
58015;SDS011;43809;52.110;20.964;2023-12-20T08:51:26;8.63;;;5.70;;
58015;SDS011;43809;52.110;20.964;2023-12-20T08:53:27;9.75;;;6.03;;
58015;SDS011;43809;52.110;20.964;2023-12-20T08:55:28;8.80;;;5.78;;
58015;SDS011;43809;52.110;20.964;2023-12-20T08:57:29;9.93;;;6.20;;
58015;SDS011;43809;52.110;20.964;2023-12-20T09:02:01;7.05;;;5.00;;
58015;SDS011;43809;52.110;20.964;2023-12-20T09:04:02;10.98;;;5.78;;
58015;SDS011;43809;52.110;20.964;2023-12-20T09:06:03;7.15;;;4.88;;
58015;SDS011;43809;52.110;20.964;2023-12-20T09:08:05;8.57;;;5.97;;
58015;SDS011;43809;52.110;20.964;2023-12-20T09:10:05;8.90;;;5.80;;
58015;SDS011;43809;52.110;20.964;2023-12-20T09:12:06;7.80;;;5.32;;
58015;SDS011;43809;52.110;20.964;2023-12-20T09:14:07;7.45;;;5.07;;
58015;SDS011;43809;52.110;20.964;2023-12-20T09:16:08;6.93;;;5.30;;
58015;SDS011;43809;52.110;20.964;2023-12-20T09:18:09;9.52;;;6.05;;
58015;SDS011;43809;52.110;20.964;2023-12-20T09:20:10;6.88;;;5.13;;
58015;SDS011;43809;52.110;20.964;2023-12-20T09:22:21;9.38;;;5.72;;
58015;SDS011;43809;52.110;20.964;2023-12-20T09:24:22;7.93;;;5.03;;
58015;SDS011;43809;52.110;20.964;2023-12-20T09:26:23;8.32;;;5.70;;
58015;SDS011;43809;52.110;20.964;2023-12-20T09:28:23;9.80;;;6.00;;
58015;SDS011;43809;52.110;20.964;2023-12-20T09:30:24;8.90;;;5.78;;
58015;SDS011;43809;52.110;20.964;2023-12-20T09:32:25;8.68;;;5.93;;
58015;SDS011;43809;52.110;20.964;2023-12-20T09:34:26;8.13;;;5.38;;
58015;SDS011;43809;52.110;20.964;2023-12-20T09:36:27;8.20;;;5.07;;
58015;SDS011;43809;52.110;20.964;2023-12-20T09:38:28;12.00;;;6.68;;
58015;SDS011;43809;52.110;20.964;2023-12-20T09:40:29;11.73;;;7.03;;
58015;SDS011;43809;52.110;20.964;2023-12-20T09:43:18;10.00;;;6.15;;
58015;SDS011;43809;52.110;20.964;2023-12-20T09:50:43;10.63;;;5.88;;
58015;SDS011;43809;52.110;20.964;2023-12-20T09:52:44;8.57;;;5.90;;
58015;SDS011;43809;52.110;20.964;2023-12-20T09:54:47;8.00;;;5.20;;
58015;SDS011;43809;52.110;20.964;2023-12-20T09:56:48;9.10;;;5.57;;
58015;SDS011;43809;52.110;20.964;2023-12-20T09:58:49;9.63;;;5.32;;
58015;SDS011;43809;52.110;20.964;2023-12-20T10:00:50;10.43;;;6.03;;
58015;SDS011;43809;52.110;20.964;2023-12-20T10:02:57;11.13;;;6.57;;
58015;SDS011;43809;52.110;20.964;2023-12-20T10:04:58;7.07;;;4.47;;
58015;SDS011;43809;52.110;20.964;2023-12-20T10:07:01;7.50;;;4.63;;
58015;SDS011;43809;52.110;20.964;2023-12-20T10:09:04;8.18;;;5.07;;
58015;SDS011;43809;52.110;20.964;2023-12-20T10:11:05;6.82;;;4.80;;
58015;SDS011;43809;52.110;20.964;2023-12-20T10:13:06;7.57;;;4.57;;
58015;SDS011;43809;52.110;20.964;2023-12-20T10:15:07;6.70;;;4.60;;
58015;SDS011;43809;52.110;20.964;2023-12-20T10:20:19;7.32;;;5.15;;
58015;SDS011;43809;52.110;20.964;2023-12-20T10:22:19;9.88;;;5.85;;
58015;SDS011;43809;52.110;20.964;2023-12-20T10:24:20;6.85;;;4.55;;
58015;SDS011;43809;52.110;20.964;2023-12-20T10:28:21;7.03;;;4.15;;
58015;SDS011;43809;52.110;20.964;2023-12-20T10:30:24;7.10;;;4.53;;
58015;SDS011;43809;52.110;20.964;2023-12-20T10:32:26;8.60;;;4.63;;
58015;SDS011;43809;52.110;20.964;2023-12-20T10:34:27;7.53;;;4.20;;
58015;SDS011;43809;52.110;20.964;2023-12-20T10:36:28;7.38;;;4.60;;
58015;SDS011;43809;52.110;20.964;2023-12-20T10:38:29;7.30;;;4.30;;
58015;SDS011;43809;52.110;20.964;2023-12-20T10:40:31;7.60;;;4.53;;
58015;SDS011;43809;52.110;20.964;2023-12-20T10:48:13;7.43;;;4.43;;
58015;SDS011;43809;52.110;20.964;2023-12-20T10:50:15;9.20;;;4.70;;
58015;SDS011;43809;52.110;20.964;2023-12-20T10:52:16;6.93;;;4.35;;
58015;SDS011;43809;52.110;20.964;2023-12-20T10:54:17;7.13;;;3.95;;
58015;SDS011;43809;52.110;20.964;2023-12-20T10:56:18;6.63;;;3.88;;
58015;SDS011;43809;52.110;20.964;2023-12-20T10:58:18;7.80;;;4.03;;
58015;SDS011;43809;52.110;20.964;2023-12-20T11:00:20;6.53;;;3.90;;
58015;SDS011;43809;52.110;20.964;2023-12-20T11:02:22;5.38;;;3.55;;
58015;SDS011;43809;52.110;20.964;2023-12-20T11:06:56;5.78;;;3.95;;
58015;SDS011;43809;52.110;20.964;2023-12-20T11:09:08;6.05;;;4.03;;
58015;SDS011;43809;52.110;20.964;2023-12-20T11:13:17;7.22;;;4.00;;
58015;SDS011;43809;52.110;20.964;2023-12-20T11:15:20;5.07;;;3.42;;
58015;SDS011;43809;52.110;20.964;2023-12-20T11:17:21;4.78;;;3.28;;
58015;SDS011;43809;52.110;20.964;2023-12-20T11:21:43;4.53;;;3.33;;
58015;SDS011;43809;52.110;20.964;2023-12-20T11:23:46;5.45;;;3.60;;
58015;SDS011;43809;52.110;20.964;2023-12-20T11:25:47;4.75;;;3.33;;
58015;SDS011;43809;52.110;20.964;2023-12-20T11:30:11;4.87;;;3.33;;
58015;SDS011;43809;52.110;20.964;2023-12-20T11:32:27;4.60;;;3.30;;
58015;SDS011;43809;52.110;20.964;2023-12-20T11:34:29;4.03;;;3.42;;
58015;SDS011;43809;52.110;20.964;2023-12-20T11:36:32;6.38;;;3.78;;
58015;SDS011;43809;52.110;20.964;2023-12-20T11:38:39;6.28;;;4.20;;
58015;SDS011;43809;52.110;20.964;2023-12-20T11:40:49;5.30;;;4.00;;
58015;SDS011;43809;52.110;20.964;2023-12-20T11:42:51;6.03;;;3.83;;
58015;SDS011;43809;52.110;20.964;2023-12-20T11:44:51;4.93;;;3.75;;
58015;SDS011;43809;52.110;20.964;2023-12-20T11:49:38;4.53;;;3.22;;
58015;SDS011;43809;52.110;20.964;2023-12-20T11:51:42;6.18;;;3.72;;
58015;SDS011;43809;52.110;20.964;2023-12-20T11:53:44;6.60;;;3.58;;
58015;SDS011;43809;52.110;20.964;2023-12-20T11:56:02;5.95;;;3.80;;
58015;SDS011;43809;52.110;20.964;2023-12-20T11:58:03;7.75;;;4.35;;
58015;SDS011;43809;52.110;20.964;2023-12-20T12:00:12;4.88;;;3.22;;
58015;SDS011;43809;52.110;20.964;2023-12-20T12:02:13;6.28;;;4.03;;
58015;SDS011;43809;52.110;20.964;2023-12-20T12:04:14;7.65;;;4.13;;
58015;SDS011;43809;52.110;20.964;2023-12-20T12:06:16;5.43;;;3.80;;
58015;SDS011;43809;52.110;20.964;2023-12-20T12:08:17;5.55;;;3.78;;
58015;SDS011;43809;52.110;20.964;2023-12-20T12:10:17;6.47;;;3.65;;
58015;SDS011;43809;52.110;20.964;2023-12-20T12:12:19;6.35;;;3.75;;
58015;SDS011;43809;52.110;20.964;2023-12-20T12:16:57;7.45;;;4.53;;
58015;SDS011;43809;52.110;20.964;2023-12-20T12:18:58;6.47;;;4.05;;
58015;SDS011;43809;52.110;20.964;2023-12-20T12:21:02;5.10;;;3.88;;
58015;SDS011;43809;52.110;20.964;2023-12-20T12:23:05;4.85;;;3.78;;
58015;SDS011;43809;52.110;20.964;2023-12-20T12:25:09;7.85;;;4.10;;
58015;SDS011;43809;52.110;20.964;2023-12-20T12:27:12;5.97;;;3.72;;
58015;SDS011;43809;52.110;20.964;2023-12-20T12:29:12;4.18;;;3.17;;
58015;SDS011;43809;52.110;20.964;2023-12-20T12:31:14;5.22;;;3.47;;
58015;SDS011;43809;52.110;20.964;2023-12-20T12:33:16;4.88;;;3.28;;
58015;SDS011;43809;52.110;20.964;2023-12-20T12:35:18;4.20;;;3.20;;
58015;SDS011;43809;52.110;20.964;2023-12-20T12:40:03;7.60;;;3.60;;
58015;SDS011;43809;52.110;20.964;2023-12-20T12:42:05;6.63;;;3.83;;
58015;SDS011;43809;52.110;20.964;2023-12-20T12:44:06;4.75;;;3.33;;
58015;SDS011;43809;52.110;20.964;2023-12-20T12:46:06;6.68;;;3.83;;
58015;SDS011;43809;52.110;20.964;2023-12-20T12:48:07;5.60;;;3.70;;
58015;SDS011;43809;52.110;20.964;2023-12-20T12:50:15;6.50;;;4.10;;
58015;SDS011;43809;52.110;20.964;2023-12-20T12:52:16;6.65;;;3.75;;
58015;SDS011;43809;52.110;20.964;2023-12-20T12:54:16;6.63;;;4.00;;
58015;SDS011;43809;52.110;20.964;2023-12-20T12:56:18;7.47;;;4.43;;
58015;SDS011;43809;52.110;20.964;2023-12-20T12:58:19;6.10;;;4.20;;
58015;SDS011;43809;52.110;20.964;2023-12-20T13:00:19;8.52;;;4.65;;
58015;SDS011;43809;52.110;20.964;2023-12-20T13:05:09;7.35;;;4.47;;
58015;SDS011;43809;52.110;20.964;2023-12-20T13:09:53;7.88;;;4.30;;
58015;SDS011;43809;52.110;20.964;2023-12-20T13:11:54;6.03;;;4.20;;
58015;SDS011;43809;52.110;20.964;2023-12-20T13:13:55;7.32;;;4.50;;
58015;SDS011;43809;52.110;20.964;2023-12-20T13:15:55;8.63;;;4.65;;
58015;SDS011;43809;52.110;20.964;2023-12-20T13:17:56;8.85;;;4.70;;
58015;SDS011;43809;52.110;20.964;2023-12-20T13:19:57;8.68;;;5.00;;
58015;SDS011;43809;52.110;20.964;2023-12-20T13:21:57;11.20;;;5.10;;
58015;SDS011;43809;52.110;20.964;2023-12-20T13:24:01;7.78;;;4.93;;
58015;SDS011;43809;52.110;20.964;2023-12-20T13:26:02;10.70;;;5.25;;
58015;SDS011;43809;52.110;20.964;2023-12-20T13:28:03;10.07;;;5.33;;
58015;SDS011;43809;52.110;20.964;2023-12-20T13:30:05;9.02;;;4.75;;
58015;SDS011;43809;52.110;20.964;2023-12-20T13:35:17;6.72;;;4.63;;
58015;SDS011;43809;52.110;20.964;2023-12-20T13:37:18;7.57;;;4.90;;
58015;SDS011;43809;52.110;20.964;2023-12-20T13:39:19;6.78;;;5.00;;
58015;SDS011;43809;52.110;20.964;2023-12-20T13:41:19;6.30;;;4.40;;
58015;SDS011;43809;52.110;20.964;2023-12-20T13:43:20;8.80;;;5.20;;
58015;SDS011;43809;52.110;20.964;2023-12-20T13:45:23;7.75;;;5.00;;
58015;SDS011;43809;52.110;20.964;2023-12-20T13:47:25;6.57;;;4.60;;
58015;SDS011;43809;52.110;20.964;2023-12-20T13:49:26;8.07;;;4.97;;
58015;SDS011;43809;52.110;20.964;2023-12-20T13:51:27;8.68;;;5.20;;
58015;SDS011;43809;52.110;20.964;2023-12-20T13:53:28;8.07;;;5.10;;
58015;SDS011;43809;52.110;20.964;2023-12-20T13:55:29;10.43;;;5.88;;
58015;SDS011;43809;52.110;20.964;2023-12-20T13:57:31;9.95;;;5.28;;
58015;SDS011;43809;52.110;20.964;2023-12-20T13:59:31;9.05;;;5.40;;
58015;SDS011;43809;52.110;20.964;2023-12-20T14:01:32;8.38;;;5.45;;
58015;SDS011;43809;52.110;20.964;2023-12-20T14:03:32;6.72;;;4.60;;
58015;SDS011;43809;52.110;20.964;2023-12-20T14:05:33;8.98;;;5.00;;
58015;SDS011;43809;52.110;20.964;2023-12-20T14:10:53;10.18;;;6.07;;
58015;SDS011;43809;52.110;20.964;2023-12-20T14:12:54;9.73;;;5.85;;
58015;SDS011;43809;52.110;20.964;2023-12-20T14:14:55;9.98;;;5.80;;
58015;SDS011;43809;52.110;20.964;2023-12-20T14:20:25;7.78;;;5.22;;
58015;SDS011;43809;52.110;20.964;2023-12-20T14:22:25;10.32;;;5.60;;